X  Fechar Metar - Info de Aeroporto     EIDW Dublin Airport
Temperatura
13°C Temperatura
11°C Ptº Orvalho
88% Humidade



Vento
19 KM/H
12 MPH
5 M/S
10 NÓS



200°
SSO
Condições Atuais

Pouco Nublado Pouco Nublado
Pressão 997.92 (hPa) - 29.47 (inHg)
Visibilidade 6.2 (milha) - 10 (km)
Aeroporto
Código-Aeropoto EIDW

Localização: Dublin Airport
Distância: 17 (km)

Metar:
EIDW 260830Z 20010G20KT 120V250 9999 FEW014 SCT021 BKN026 13/11 Q0998 NOSIG

Hora: 26-06-2022 09:30 IST